Time;durP1;ratioP1;P1;durP2;ratioP2;P2;SDS_P1;SDS_P2;PMS_P1;PMS_P2;Temp;Humidity;BMP_temperature;BMP_pressure;BME280_temperature;BME280_humidity;BME280_pressure;Samples;Min_cycle;Max_cycle;Signal;HPM_P1;HPM_P2
2022/01/15 00:02:08;;;;;;;26.17;12.43;;;5.50;99.90;;;;;;5035139;28;20167;-63
2022/01/15 00:04:33;;;;;;;21.07;10.57;;;5.50;99.90;;;;;;5035155;28;20169;-63
2022/01/15 00:06:59;;;;;;;22.13;10.53;;;5.40;99.90;;;;;;5035156;28;20171;-63
2022/01/15 00:09:25;;;;;;;22.33;10.60;;;5.40;99.90;;;;;;5034852;28;20250;-64
2022/01/15 00:11:52;;;;;;;22.47;12.07;;;5.40;99.90;;;;;;5034681;28;20165;-63
2022/01/15 00:14:26;;;;;;;19.97;10.83;;;5.50;99.90;;;;;;5034585;28;20609;-62
2022/01/15 00:17:04;;;;;;;22.03;11.67;;;5.50;99.90;;;;;;5034110;28;20177;-63
2022/01/15 00:19:42;;;;;;;19.90;10.97;;;5.50;99.90;;;;;;5033763;28;20172;-63
2022/01/15 00:22:17;;;;;;;22.90;11.57;;;5.50;99.90;;;;;;5034908;28;20258;-65
2022/01/15 00:24:44;;;;;;;24.47;11.17;;;5.50;99.90;;;;;;5034600;28;20173;-64
2022/01/15 00:27:10;;;;;;;20.70;11.93;;;5.50;99.90;;;;;;5034550;28;20236;-62
2022/01/15 00:29:36;;;;;;;25.60;11.93;;;5.50;99.90;;;;;;5034523;28;20204;-64
2022/01/15 00:32:04;;;;;;;21.33;10.60;;;5.40;99.90;;;;;;5033349;28;20169;-62
2022/01/15 00:34:29;;;;;;;19.50;10.13;;;5.40;99.90;;;;;;5034649;28;20290;-63
2022/01/15 00:36:55;;;;;;;22.87;10.77;;;5.40;99.90;;;;;;5035023;28;20217;-63
2022/01/15 00:39:21;;;;;;;23.70;12.03;;;5.30;99.90;;;;;;5035017;28;20226;-63
2022/01/15 00:41:47;;;;;;;24.30;11.50;;;5.40;99.90;;;;;;5033680;28;20165;-63
2022/01/15 00:44:13;;;;;;;24.17;11.17;;;5.40;99.90;;;;;;5034172;28;20173;-64
2022/01/15 00:46:38;;;;;;;21.00;11.90;;;5.40;99.90;;;;;;5033655;28;20239;-63
2022/01/15 00:49:04;;;;;;;20.40;11.73;;;5.40;99.90;;;;;;5033198;28;20206;-63
2022/01/15 00:51:29;;;;;;;20.17;10.17;;;5.40;99.90;;;;;;5033783;28;20572;-63
2022/01/15 00:53:55;;;;;;;21.73;11.00;;;5.40;99.90;;;;;;5033777;28;20176;-64
2022/01/15 00:56:22;;;;;;;25.17;12.27;;;5.40;99.90;;;;;;5033834;28;20175;-71
2022/01/15 00:58:47;;;;;;;23.10;10.40;;;5.40;99.90;;;;;;5018165;28;20597;-62
2022/01/15 01:01:13;;;;;;;21.07;11.53;;;5.30;99.90;;;;;;5018128;28;20175;-67
2022/01/15 01:03:39;;;;;;;30.53;11.27;;;5.30;99.90;;;;;;5017753;28;20211;-62
2022/01/15 01:06:04;;;;;;;22.93;11.30;;;5.50;99.90;;;;;;5019523;28;20161;-66
2022/01/15 01:08:30;;;;;;;22.50;10.80;;;5.40;99.90;;;;;;5014747;28;20229;-62
2022/01/15 01:10:58;;;;;;;19.13;10.33;;;5.30;99.90;;;;;;5013272;28;20159;-64
2022/01/15 01:13:42;;;;;;;20.57;11.73;;;5.40;99.90;;;;;;5014364;28;20189;-63
2022/01/15 01:24:24;;;;;;;20.17;10.00;;;5.40;99.90;;;;;;5014686;28;20199;-63
2022/01/15 01:34:24;;;;;;;19.17;10.33;;;5.40;99.90;;;;;;5013582;28;20605;-62
2022/01/15 01:37:12;;;;;;;18.93;9.60;;;5.40;99.90;;;;;;5013123;28;20232;-63
2022/01/15 01:39:44;;;;;;;21.13;11.17;;;5.40;99.90;;;;;;5013503;28;20164;-63
2022/01/15 01:45:17;;;;;;;18.20;9.63;;;5.40;99.90;;;;;;5013546;28;20201;-63
2022/01/15 01:47:44;;;;;;;19.73;10.27;;;5.40;99.90;;;;;;5001671;28;20280;-64
2022/01/15 01:50:13;;;;;;;20.43;9.50;;;5.40;99.90;;;;;;5012974;28;20278;-62
2022/01/15 01:52:40;;;;;;;18.47;10.00;;;5.40;99.90;;;;;;5013534;28;20659;-62
2022/01/15 01:55:07;;;;;;;21.67;10.60;;;5.40;99.90;;;;;;5013965;28;20164;-63
2022/01/15 01:57:33;;;;;;;19.20;10.43;;;5.40;99.90;;;;;;5013000;28;20166;-62
2022/01/15 01:59:59;;;;;;;23.27;12.17;;;5.40;99.90;;;;;;5014544;28;20187;-63
2022/01/15 02:02:25;;;;;;;25.07;9.80;;;5.40;99.90;;;;;;5019071;28;20237;-63
2022/01/15 02:04:56;;;;;;;21.60;9.30;;;5.40;99.90;;;;;;5023985;28;20190;-63
2022/01/15 02:07:22;;;;;;;18.17;9.80;;;5.50;99.90;;;;;;5019089;28;20160;-62
2022/01/15 02:09:48;;;;;;;14.63;8.37;;;5.40;99.90;;;;;;5012855;28;20220;-63
2022/01/15 02:12:13;;;;;;;18.93;9.53;;;5.30;99.90;;;;;;5016990;28;20484;-63
2022/01/15 02:14:39;;;;;;;15.83;9.63;;;5.30;99.90;;;;;;5020692;28;20658;-62
2022/01/15 02:17:04;;;;;;;18.27;9.97;;;5.30;99.90;;;;;;5036457;28;20161;-62
2022/01/15 02:19:44;;;;;;;22.40;10.17;;;5.30;99.90;;;;;;5036825;28;20615;-62
2022/01/15 02:24:54;;;;;;;17.83;9.20;;;5.30;99.90;;;;;;5036837;28;20224;-63
2022/01/15 02:27:20;;;;;;;17.80;7.40;;;5.30;99.90;;;;;;5036776;28;20229;-63
2022/01/15 02:29:46;;;;;;;17.53;9.00;;;5.20;99.90;;;;;;5030465;28;20215;-62
2022/01/15 02:32:11;;;;;;;21.13;8.27;;;5.20;99.90;;;;;;5031564;28;20172;-64
2022/01/15 02:34:37;;;;;;;16.10;9.13;;;5.10;99.90;;;;;;5017798;28;20167;-63
2022/01/15 02:37:03;;;;;;;16.67;7.70;;;5.10;99.90;;;;;;5017190;28;20636;-63
2022/01/15 02:39:28;;;;;;;21.20;8.67;;;5.10;99.90;;;;;;5016866;28;20654;-64
2022/01/15 02:41:54;;;;;;;15.03;8.93;;;5.00;99.90;;;;;;5016884;28;20172;-62
2022/01/15 02:44:20;;;;;;;18.63;8.03;;;5.10;99.90;;;;;;5017323;28;20173;-63
2022/01/15 02:49:17;;;;;;;16.80;8.57;;;5.10;99.90;;;;;;5019828;28;20219;-64
2022/01/15 02:51:43;;;;;;;16.17;7.73;;;5.10;99.90;;;;;;5032788;28;20236;-63
2022/01/15 02:54:09;;;;;;;18.30;9.17;;;5.10;99.90;;;;;;5031391;28;20194;-63
2022/01/15 02:56:37;;;;;;;16.57;8.43;;;5.10;99.90;;;;;;5036482;28;20165;-62
2022/01/15 02:59:05;;;;;;;18.13;8.43;;;5.10;99.90;;;;;;5035853;28;20176;-64
2022/01/15 03:01:32;;;;;;;19.73;8.37;;;5.10;99.90;;;;;;5035913;28;20178;-62
2022/01/15 03:03:57;;;;;;;21.60;10.57;;;5.00;99.90;;;;;;5035920;28;20575;-63
2022/01/15 03:06:23;;;;;;;19.40;8.53;;;5.00;99.90;;;;;;5035505;28;20194;-64
2022/01/15 03:08:51;;;;;;;16.07;8.07;;;4.90;99.90;;;;;;5034904;28;20671;-64
2022/01/15 03:11:17;;;;;;;17.67;6.90;;;5.00;99.90;;;;;;5033029;28;20200;-63
2022/01/15 03:13:44;;;;;;;19.53;9.47;;;5.00;99.90;;;;;;5037602;28;20431;-63
2022/01/15 03:16:16;;;;;;;18.80;8.13;;;5.00;99.90;;;;;;5017576;28;20536;-63
2022/01/15 03:18:42;;;;;;;16.37;7.30;;;4.90;99.90;;;;;;5015946;28;20217;-62
2022/01/15 03:21:07;;;;;;;15.67;6.07;;;5.00;99.90;;;;;;5015998;28;20540;-63
2022/01/15 03:23:33;;;;;;;14.03;6.43;;;5.00;99.90;;;;;;5015422;28;20262;-63
2022/01/15 03:25:59;;;;;;;14.90;8.17;;;5.00;99.90;;;;;;5015937;28;20176;-63
2022/01/15 03:28:25;;;;;;;21.20;8.57;;;5.00;99.90;;;;;;5015805;28;20177;-64
2022/01/15 03:30:51;;;;;;;18.40;6.77;;;5.00;99.90;;;;;;5015194;28;20568;-64
2022/01/15 03:33:16;;;;;;;14.77;6.43;;;5.00;99.90;;;;;;5015190;28;20164;-63
2022/01/15 03:35:42;;;;;;;12.00;6.40;;;5.00;99.90;;;;;;5015095;28;20287;-64
2022/01/15 03:38:08;;;;;;;12.77;7.63;;;5.00;99.90;;;;;;5015526;28;20497;-62
2022/01/15 03:40:36;;;;;;;13.07;6.63;;;5.00;99.90;;;;;;5014863;28;20200;-63
2022/01/15 03:43:03;;;;;;;19.87;7.53;;;5.00;99.90;;;;;;5015064;28;20170;-63
2022/01/15 03:45:29;;;;;;;16.07;6.20;;;4.90;99.90;;;;;;5014902;28;20256;-63
2022/01/15 03:47:56;;;;;;;13.47;7.03;;;4.90;99.90;;;;;;5013752;28;20221;-63
2022/01/15 03:50:24;;;;;;;15.23;7.57;;;4.90;99.90;;;;;;5034396;28;20192;-63
2022/01/15 03:52:49;;;;;;;17.07;8.20;;;5.00;99.90;;;;;;5034532;28;20570;-64
2022/01/15 03:55:15;;;;;;;12.73;7.13;;;5.00;99.90;;;;;;5015570;28;20186;-63
2022/01/15 03:57:41;;;;;;;15.03;8.67;;;5.00;99.90;;;;;;5015393;28;20284;-62
2022/01/15 04:00:16;;;;;;;18.40;6.63;;;5.00;99.90;;;;;;5015140;28;20586;-63
2022/01/15 04:02:42;;;;;;;12.87;6.70;;;5.00;99.90;;;;;;5015227;28;20199;-62
2022/01/15 04:05:11;;;;;;;18.37;7.33;;;5.10;99.90;;;;;;5014964;28;20165;-63
2022/01/15 04:07:37;;;;;;;13.17;7.03;;;5.10;99.90;;;;;;5026690;28;20186;-64
2022/01/15 04:10:08;;;;;;;16.53;6.90;;;5.10;99.90;;;;;;5027560;28;20204;-63
2022/01/15 04:12:34;;;;;;;16.13;7.20;;;5.10;99.90;;;;;;5034510;28;20200;-63
2022/01/15 04:14:59;;;;;;;15.10;6.03;;;5.10;99.90;;;;;;5039191;28;20176;-66
2022/01/15 04:17:26;;;;;;;18.90;6.93;;;5.00;99.90;;;;;;5036724;28;20629;-65
2022/01/15 04:19:52;;;;;;;14.33;6.17;;;5.00;99.90;;;;;;5035128;28;20165;-63
2022/01/15 04:22:18;;;;;;;9.90;5.07;;;5.00;99.90;;;;;;5036582;28;20164;-63
2022/01/15 04:24:44;;;;;;;19.57;8.27;;;4.90;99.90;;;;;;5036234;28;20165;-63
2022/01/15 04:27:10;;;;;;;14.37;6.80;;;4.90;99.90;;;;;;5036344;28;20193;-64
2022/01/15 04:29:36;;;;;;;12.33;6.37;;;4.90;99.90;;;;;;5018810;28;20257;-63
2022/01/15 04:32:02;;;;;;;16.80;6.37;;;4.90;99.90;;;;;;5015140;28;20244;-63
2022/01/15 04:34:30;;;;;;;13.03;5.47;;;4.70;99.90;;;;;;5014979;28;20169;-64
2022/01/15 04:37:07;;;;;;;13.80;6.47;;;4.80;99.90;;;;;;5015173;28;20659;-63
2022/01/15 04:39:33;;;;;;;11.43;5.57;;;4.80;99.90;;;;;;5014082;28;20182;-63
2022/01/15 04:41:58;;;;;;;16.93;5.60;;;4.90;99.90;;;;;;5019418;28;20185;-62
2022/01/15 04:44:24;;;;;;;10.17;5.23;;;4.80;99.90;;;;;;5049792;28;20195;-64
2022/01/15 04:47:08;;;;;;;10.00;5.03;;;4.70;99.90;;;;;;5034213;28;20171;-62
2022/01/15 04:49:34;;;;;;;16.90;5.97;;;4.70;99.90;;;;;;5032599;28;20246;-63
2022/01/15 04:52:00;;;;;;;14.17;6.07;;;4.70;99.90;;;;;;5035286;28;20250;-62
2022/01/15 04:54:27;;;;;;;16.43;6.37;;;4.70;99.90;;;;;;5034648;28;20512;-62
2022/01/15 04:56:52;;;;;;;13.97;6.20;;;4.80;99.90;;;;;;5034159;28;20163;-63
2022/01/15 04:59:18;;;;;;;14.57;5.50;;;4.70;99.90;;;;;;5015726;28;20695;-63
2022/01/15 05:01:44;;;;;;;13.90;4.70;;;4.70;99.90;;;;;;5033386;28;20172;-65
2022/01/15 05:04:09;;;;;;;19.33;5.60;;;4.70;99.90;;;;;;5033472;28;20171;-62
2022/01/15 05:06:35;;;;;;;14.87;4.23;;;4.70;99.90;;;;;;5033719;28;20653;-63
2022/01/15 05:09:05;;;;;;;13.03;4.83;;;4.70;99.90;;;;;;5030055;28;20208;-63
2022/01/15 05:11:44;;;;;;;12.03;4.83;;;4.70;99.90;;;;;;5033512;28;20268;-63
2022/01/15 05:14:12;;;;;;;13.13;4.40;;;4.70;99.90;;;;;;5033683;28;20590;-63
2022/01/15 05:16:38;;;;;;;15.70;5.10;;;4.70;99.90;;;;;;5033396;28;20156;-64
2022/01/15 05:19:04;;;;;;;12.23;5.97;;;4.60;99.90;;;;;;5033396;28;20525;-63
2022/01/15 05:21:30;;;;;;;8.50;3.60;;;4.60;99.90;;;;;;5033112;28;20206;-63
2022/01/15 05:23:56;;;;;;;8.97;4.17;;;4.60;99.90;;;;;;5033442;28;20213;-62
2022/01/15 05:26:21;;;;;;;14.20;4.93;;;4.60;99.90;;;;;;5033413;28;20171;-63
2022/01/15 05:28:47;;;;;;;9.17;4.07;;;4.60;99.90;;;;;;5015819;28;20216;-67
2022/01/15 05:31:13;;;;;;;15.53;4.53;;;4.50;99.90;;;;;;5018653;28;20187;-64
2022/01/15 05:33:38;;;;;;;19.63;4.00;;;4.50;99.90;;;;;;5018345;28;20653;-62
2022/01/15 05:36:04;;;;;;;7.77;3.83;;;4.50;99.90;;;;;;5022071;28;20244;-64
2022/01/15 05:38:30;;;;;;;13.73;4.90;;;4.50;99.90;;;;;;5027190;28;20251;-62
2022/01/15 05:40:55;;;;;;;17.17;5.47;;;4.50;99.90;;;;;;5022668;28;20189;-64
2022/01/15 05:43:21;;;;;;;15.97;4.27;;;4.40;99.90;;;;;;5025567;28;20209;-64
2022/01/15 05:45:47;;;;;;;11.93;4.00;;;4.40;99.90;;;;;;5023552;28;20276;-65
2022/01/15 05:48:12;;;;;;;17.80;5.40;;;4.40;99.90;;;;;;5020874;28;20224;-65
2022/01/15 05:50:38;;;;;;;9.77;4.50;;;4.40;99.90;;;;;;5029844;28;20246;-64
2022/01/15 05:53:04;;;;;;;12.00;4.30;;;4.30;99.90;;;;;;5023711;28;20191;-64
2022/01/15 05:55:29;;;;;;;7.30;4.20;;;4.40;99.90;;;;;;5022822;28;20194;-62
2022/01/15 05:57:55;;;;;;;8.53;4.07;;;4.40;99.90;;;;;;5023595;28;20189;-63
2022/01/15 06:00:21;;;;;;;17.70;6.07;;;4.40;99.90;;;;;;5025388;28;20187;-66
2022/01/15 06:02:46;;;;;;;16.13;5.13;;;4.30;99.90;;;;;;5026788;28;20194;-62
2022/01/15 06:05:12;;;;;;;10.43;4.33;;;4.40;99.90;;;;;;5020456;28;20639;-66
2022/01/15 06:07:38;;;;;;;17.33;5.63;;;4.40;99.90;;;;;;5023440;28;20244;-63
2022/01/15 06:10:04;;;;;;;16.20;5.17;;;4.40;99.90;;;;;;5034287;28;20219;-63
2022/01/15 06:12:32;;;;;;;12.67;5.10;;;4.40;99.90;;;;;;5027075;28;20518;-64
2022/01/15 06:14:59;;;;;;;7.33;4.43;;;4.40;99.90;;;;;;5018724;28;20677;-65
2022/01/15 06:17:25;;;;;;;11.83;5.20;;;4.40;99.90;;;;;;5020610;28;24089;-63
2022/01/15 06:19:51;;;;;;;16.60;5.97;;;4.40;99.90;;;;;;5020774;28;20277;-63
2022/01/15 06:22:17;;;;;;;17.30;6.30;;;4.40;99.90;;;;;;5023961;28;20289;-62
2022/01/15 06:24:42;;;;;;;21.27;6.17;;;4.20;99.90;;;;;;5021284;28;20187;-64
2022/01/15 06:27:11;;;;;;;13.33;6.00;;;4.20;99.90;;;;;;5022443;28;20609;-64
2022/01/15 06:29:37;;;;;;;20.83;6.67;;;4.20;99.90;;;;;;5025911;28;20213;-65
2022/01/15 06:32:04;;;;;;;13.40;6.27;;;4.20;99.90;;;;;;5024013;28;20289;-64
2022/01/15 06:34:29;;;;;;;20.07;6.43;;;4.10;99.90;;;;;;5023898;28;20206;-64
2022/01/15 06:36:55;;;;;;;14.20;5.87;;;4.00;99.90;;;;;;5021042;28;20698;-63
2022/01/15 06:39:21;;;;;;;8.20;4.77;;;4.10;99.90;;;;;;5024497;28;20207;-66
2022/01/15 06:41:46;;;;;;;13.20;5.23;;;4.00;99.90;;;;;;5024870;28;20195;-63
2022/01/15 06:44:12;;;;;;;18.70;5.93;;;4.00;99.90;;;;;;5027257;28;20198;-65
2022/01/15 06:46:38;;;;;;;19.73;6.37;;;4.10;99.90;;;;;;5023948;28;20710;-64
2022/01/15 06:49:03;;;;;;;23.70;7.23;;;3.90;99.90;;;;;;5026636;28;20700;-63
2022/01/15 06:51:29;;;;;;;16.73;7.40;;;4.00;99.90;;;;;;5023624;28;20188;-63
2022/01/15 06:53:55;;;;;;;19.57;7.20;;;4.00;99.90;;;;;;5023176;28;20178;-64
2022/01/15 06:56:20;;;;;;;16.93;7.13;;;4.10;99.90;;;;;;5022179;28;20181;-62
2022/01/15 06:58:46;;;;;;;16.40;7.60;;;4.10;99.90;;;;;;5021743;28;20555;-63
2022/01/15 07:01:12;;;;;;;20.10;7.90;;;4.10;99.90;;;;;;5019755;28;20174;-65
2022/01/15 07:03:37;;;;;;;27.27;8.30;;;4.10;99.90;;;;;;5018522;28;20191;-63
2022/01/15 07:06:03;;;;;;;23.13;8.57;;;4.20;99.90;;;;;;5024002;28;20208;-66
2022/01/15 07:08:29;;;;;;;24.47;7.97;;;4.10;99.90;;;;;;5029242;28;20601;-63
2022/01/15 07:10:54;;;;;;;13.43;5.27;;;4.10;99.90;;;;;;5026153;28;20665;-62
2022/01/15 07:13:20;;;;;;;16.93;8.47;;;4.20;99.90;;;;;;5016079;28;20246;-63
2022/01/15 07:15:49;;;;;;;20.00;8.27;;;4.20;99.90;;;;;;5015718;28;20190;-64
2022/01/15 07:18:18;;;;;;;15.30;6.83;;;4.20;99.90;;;;;;5035014;28;20543;-65
2022/01/15 07:20:44;;;;;;;22.20;8.37;;;4.30;99.90;;;;;;5022829;28;20182;-64
2022/01/15 07:23:10;;;;;;;21.00;6.93;;;4.20;99.90;;;;;;5035543;28;20275;-62
2022/01/15 07:25:35;;;;;;;27.63;7.53;;;4.30;99.90;;;;;;5023978;28;20267;-69
2022/01/15 07:28:01;;;;;;;16.67;6.70;;;4.40;99.90;;;;;;5021564;28;20238;-63
2022/01/15 07:30:27;;;;;;;17.57;7.43;;;4.30;99.90;;;;;;5024679;28;20221;-65
2022/01/15 07:32:52;;;;;;;24.60;11.03;;;4.30;99.90;;;;;;5020927;28;20178;-65
2022/01/15 07:35:19;;;;;;;18.63;7.97;;;4.20;99.90;;;;;;5029985;28;20198;-64
2022/01/15 07:37:44;;;;;;;18.40;6.93;;;4.30;99.90;;;;;;5028339;28;20184;-65
2022/01/15 07:40:11;;;;;;;21.80;9.17;;;4.30;99.90;;;;;;5038092;28;20285;-65
2022/01/15 07:42:39;;;;;;;24.13;9.77;;;4.20;99.90;;;;;;5036997;28;20197;-68
2022/01/15 07:45:10;;;;;;;26.47;9.70;;;4.20;99.90;;;;;;5025505;28;20180;-62
2022/01/15 07:47:36;;;;;;;16.93;6.43;;;4.20;99.90;;;;;;5023299;28;20187;-69
2022/01/15 07:50:05;;;;;;;16.63;8.00;;;4.30;99.90;;;;;;5022464;28;20214;-63
2022/01/15 07:52:31;;;;;;;16.60;8.00;;;4.30;99.90;;;;;;5023674;28;20208;-64
2022/01/15 07:54:58;;;;;;;19.30;7.93;;;4.30;99.90;;;;;;5024416;28;20190;-66
2022/01/15 07:57:24;;;;;;;15.13;6.83;;;4.30;99.90;;;;;;5019845;28;20184;-66
2022/01/15 07:59:50;;;;;;;26.50;10.47;;;4.20;99.90;;;;;;5025209;28;20191;-66
2022/01/15 08:02:16;;;;;;;19.93;8.87;;;4.20;99.90;;;;;;5022254;28;20264;-65
2022/01/15 08:04:42;;;;;;;18.70;8.50;;;4.30;99.90;;;;;;5023437;28;20609;-66
2022/01/15 08:07:09;;;;;;;19.97;8.90;;;4.30;99.90;;;;;;5022423;28;20199;-64
2022/01/15 08:09:36;;;;;;;20.90;8.67;;;4.20;99.90;;;;;;5023683;28;20215;-70
2022/01/15 08:12:02;;;;;;;19.07;8.70;;;4.20;99.90;;;;;;5021907;28;20185;-63
2022/01/15 08:14:28;;;;;;;22.30;9.03;;;4.30;99.90;;;;;;5024999;28;20176;-64
2022/01/15 08:16:54;;;;;;;20.33;8.33;;;4.30;99.90;;;;;;5023137;28;20175;-64
2022/01/15 08:19:19;;;;;;;21.40;9.30;;;4.30;99.90;;;;;;5023174;28;20184;-62
2022/01/15 08:21:45;;;;;;;16.30;8.70;;;4.20;99.90;;;;;;5016252;28;20206;-64
2022/01/15 08:24:11;;;;;;;28.13;9.33;;;4.20;99.90;;;;;;5016748;28;20191;-63
2022/01/15 08:26:36;;;;;;;18.63;9.30;;;4.40;99.90;;;;;;5022692;28;20196;-66
2022/01/15 08:29:03;;;;;;;25.83;9.50;;;4.20;99.90;;;;;;5015126;28;20272;-64
2022/01/15 08:31:29;;;;;;;22.43;9.17;;;4.30;99.90;;;;;;5022918;28;20187;-65
2022/01/15 08:33:55;;;;;;;18.87;7.50;;;4.40;99.90;;;;;;5020519;28;20188;-62
2022/01/15 08:36:21;;;;;;;25.10;9.17;;;4.40;99.90;;;;;;5018223;28;20237;-62
2022/01/15 08:38:48;;;;;;;16.87;7.00;;;4.50;99.90;;;;;;5017781;28;20195;-64
2022/01/15 08:41:14;;;;;;;22.83;7.33;;;4.50;99.90;;;;;;5015769;28;20325;-64
2022/01/15 08:43:41;;;;;;;21.07;6.97;;;4.50;99.90;;;;;;5020522;28;20193;-62
2022/01/15 08:46:07;;;;;;;15.80;7.27;;;4.60;99.90;;;;;;5017371;28;20189;-63
2022/01/15 08:48:33;;;;;;;23.83;8.70;;;4.70;99.90;;;;;;5020145;28;20539;-63
2022/01/15 08:50:59;;;;;;;17.70;6.47;;;4.60;99.90;;;;;;5025702;28;20197;-63
2022/01/15 08:53:25;;;;;;;15.80;7.30;;;4.70;99.90;;;;;;5013959;28;20170;-64
2022/01/15 08:55:51;;;;;;;17.33;6.43;;;4.80;99.90;;;;;;5021592;28;20189;-69
2022/01/15 08:58:16;;;;;;;13.57;6.13;;;4.80;99.90;;;;;;5022270;28;20254;-65
2022/01/15 09:00:42;;;;;;;17.77;6.93;;;4.70;99.90;;;;;;5022837;28;20290;-67
2022/01/15 09:03:08;;;;;;;18.53;6.43;;;4.70;99.90;;;;;;5018033;28;20264;-66
2022/01/15 09:05:35;;;;;;;12.80;6.63;;;4.80;99.90;;;;;;5022082;28;20197;-64
2022/01/15 09:08:02;;;;;;;15.63;5.73;;;4.80;99.90;;;;;;5020483;28;20256;-63
2022/01/15 09:10:28;;;;;;;22.67;7.07;;;4.90;99.90;;;;;;5017892;28;20256;-65
2022/01/15 09:12:54;;;;;;;13.87;6.23;;;4.80;99.90;;;;;;5026798;28;20193;-62
2022/01/15 09:15:20;;;;;;;15.10;5.90;;;4.90;99.90;;;;;;5025680;28;20211;-64
2022/01/15 09:17:46;;;;;;;16.43;5.80;;;5.00;99.90;;;;;;5024590;28;20231;-64
2022/01/15 09:20:12;;;;;;;18.20;6.23;;;5.00;99.90;;;;;;5025679;28;20189;-64
2022/01/15 09:22:38;;;;;;;12.73;5.70;;;5.10;99.90;;;;;;5019033;28;20332;-62
2022/01/15 09:25:04;;;;;;;14.73;5.67;;;5.20;99.90;;;;;;5023509;28;20324;-62
2022/01/15 09:30:17;;;;;;;17.53;6.13;;;5.30;99.90;;;;;;5021814;28;20209;-64
2022/01/15 09:32:51;;;;;;;16.43;5.70;;;5.30;99.90;;;;;;5022523;28;20609;-64
2022/01/15 09:35:21;;;;;;;12.20;5.20;;;5.40;99.90;;;;;;5023308;28;20183;-64
2022/01/15 09:37:49;;;;;;;13.70;5.07;;;5.40;99.90;;;;;;5025450;28;20181;-64
2022/01/15 09:40:16;;;;;;;15.00;5.47;;;5.40;99.90;;;;;;5024402;28;20236;-66
2022/01/15 09:42:44;;;;;;;17.43;5.40;;;5.20;99.90;;;;;;5023142;28;20199;-64
2022/01/15 09:45:11;;;;;;;18.97;5.93;;;5.40;99.90;;;;;;5022132;28;20255;-62
2022/01/15 09:47:37;;;;;;;14.47;5.07;;;5.40;99.90;;;;;;5018911;28;20196;-64
2022/01/15 09:50:12;;;;;;;13.73;5.07;;;5.40;99.90;;;;;;5016574;28;20307;-63
2022/01/15 09:52:38;;;;;;;18.53;4.57;;;5.50;99.90;;;;;;5022336;28;20180;-62
2022/01/15 09:55:07;;;;;;;17.30;4.90;;;5.60;99.90;;;;;;5021807;28;20227;-63
2022/01/15 09:57:34;;;;;;;16.03;4.07;;;5.50;99.90;;;;;;5022913;28;20177;-63
2022/01/15 10:00:04;;;;;;;11.10;3.30;;;5.50;99.90;;;;;;5022287;28;20218;-62
2022/01/15 10:02:29;;;;;;;27.13;4.40;;;5.40;99.90;;;;;;5023774;28;20236;-66
2022/01/15 10:04:55;;;;;;;14.87;3.87;;;5.50;99.90;;;;;;5020557;28;20667;-63
2022/01/15 10:07:27;;;;;;;12.07;4.63;;;5.70;99.90;;;;;;5021298;28;20173;-65
2022/01/15 10:09:55;;;;;;;11.63;3.70;;;5.70;99.90;;;;;;5018182;28;20236;-64
2022/01/15 10:12:31;;;;;;;9.37;3.87;;;5.70;99.90;;;;;;5022734;28;20211;-70
2022/01/15 10:15:04;;;;;;;6.70;3.33;;;5.60;99.90;;;;;;5019914;28;20557;-63
2022/01/15 10:17:35;;;;;;;13.10;2.93;;;5.60;99.90;;;;;;5019515;28;20174;-63
2022/01/15 10:20:05;;;;;;;11.93;3.33;;;5.70;99.90;;;;;;5021351;28;20271;-63
2022/01/15 10:22:34;;;;;;;17.00;3.50;;;5.70;99.90;;;;;;5031864;28;20198;-63
2022/01/15 10:25:05;;;;;;;18.07;2.80;;;5.90;99.90;;;;;;5031801;28;20195;-63
2022/01/15 10:27:34;;;;;;;16.67;3.37;;;5.80;99.90;;;;;;5026633;28;20190;-63
2022/01/15 10:30:08;;;;;;;7.43;1.97;;;5.70;99.90;;;;;;5025069;28;20248;-63
2022/01/15 10:32:37;;;;;;;16.50;3.40;;;5.90;99.90;;;;;;5027477;28;20194;-63
2022/01/15 10:35:15;;;;;;;21.33;2.50;;;6.00;99.90;;;;;;5025953;28;20628;-63
2022/01/15 10:37:57;;;;;;;14.10;3.17;;;6.10;99.90;;;;;;5021790;28;20201;-63
2022/01/15 10:40:38;;;;;;;17.87;3.57;;;6.10;99.90;;;;;;5023906;28;20172;-64
2022/01/15 10:43:04;;;;;;;11.63;3.23;;;6.00;99.90;;;;;;5025017;28;20186;-63
2022/01/15 10:45:31;;;;;;;12.93;3.60;;;6.00;99.90;;;;;;5025479;28;20199;-64
2022/01/15 10:48:01;;;;;;;17.40;2.87;;;6.00;99.90;;;;;;5023199;28;20180;-66
2022/01/15 10:50:33;;;;;;;11.40;2.90;;;6.00;99.90;;;;;;5023260;28;20551;-65
2022/01/15 10:53:06;;;;;;;8.10;2.63;;;6.00;99.90;;;;;;5026885;28;20715;-62
2022/01/15 10:55:33;;;;;;;9.93;2.07;;;5.90;99.90;;;;;;5023918;28;20180;-64
2022/01/15 10:58:09;;;;;;;11.27;2.40;;;5.80;99.90;;;;;;5021996;28;20284;-63
2022/01/15 11:00:41;;;;;;;17.47;3.23;;;5.80;99.90;;;;;;5022205;28;20525;-63
2022/01/15 11:03:11;;;;;;;13.43;2.57;;;5.90;99.90;;;;;;5023219;28;20178;-64
2022/01/15 11:05:41;;;;;;;9.80;2.40;;;5.80;99.90;;;;;;5020257;28;20181;-64
2022/01/15 11:08:09;;;;;;;9.43;2.07;;;5.90;99.90;;;;;;5023770;28;20496;-64
2022/01/15 11:10:41;;;;;;;9.40;2.80;;;5.90;99.90;;;;;;5024158;28;20660;-63
2022/01/15 11:13:10;;;;;;;12.00;3.17;;;5.90;99.90;;;;;;5021288;28;20548;-64
2022/01/15 11:15:37;;;;;;;9.93;3.53;;;5.80;99.90;;;;;;5024604;28;20567;-65
2022/01/15 11:18:04;;;;;;;18.63;2.27;;;5.80;99.90;;;;;;5022737;28;20223;-64
2022/01/15 11:20:31;;;;;;;18.13;2.40;;;5.90;99.90;;;;;;5021219;28;20267;-63
2022/01/15 11:23:02;;;;;;;22.03;3.07;;;5.90;99.90;;;;;;5024382;28;20838;-63
2022/01/15 11:25:28;;;;;;;13.37;3.30;;;5.90;99.90;;;;;;5022962;28;20311;-64
2022/01/15 11:27:55;;;;;;;11.10;2.10;;;5.90;99.90;;;;;;5023426;28;20193;-63
2022/01/15 11:30:22;;;;;;;13.30;2.40;;;5.90;99.90;;;;;;5024678;28;20197;-65
2022/01/15 11:32:48;;;;;;;8.00;2.50;;;5.90;99.90;;;;;;5025874;28;20181;-62
2022/01/15 11:35:13;;;;;;;9.53;2.23;;;5.90;99.90;;;;;;5024958;28;20181;-64
2022/01/15 11:37:49;;;;;;;11.57;1.97;;;5.90;99.90;;;;;;5027664;28;20186;-64
2022/01/15 11:40:34;;;;;;;12.10;2.40;;;5.90;99.90;;;;;;5022242;28;20181;-62
2022/01/15 11:43:25;;;;;;;9.83;2.77;;;5.90;99.90;;;;;;5018568;28;20189;-62
2022/01/15 11:45:52;;;;;;;8.73;2.60;;;5.90;99.90;;;;;;5022397;28;20185;-64
2022/01/15 11:48:28;;;;;;;18.03;7.20;;;5.90;99.90;;;;;;5023252;28;20246;-63
2022/01/15 11:51:13;;;;;;;10.30;2.70;;;5.90;99.90;;;;;;5023710;28;20188;-65
2022/01/15 11:53:57;;;;;;;24.70;2.70;;;5.80;99.90;;;;;;5022892;28;20578;-62
2022/01/15 11:56:27;;;;;;;15.53;3.40;;;5.90;99.90;;;;;;5019458;28;20178;-63
2022/01/15 11:58:57;;;;;;;7.73;1.83;;;6.00;99.90;;;;;;5019350;28;20193;-68
2022/01/15 12:01:42;;;;;;;8.73;2.23;;;6.00;99.90;;;;;;5020967;28;20170;-69
2022/01/15 12:04:31;;;;;;;10.30;2.27;;;6.00;99.90;;;;;;5025932;28;20212;-63
2022/01/15 12:07:05;;;;;;;7.00;2.00;;;6.00;99.90;;;;;;5026842;28;20197;-64
2022/01/15 12:09:34;;;;;;;8.80;2.53;;;6.10;99.90;;;;;;5023886;28;20213;-62
2022/01/15 12:12:00;;;;;;;9.40;2.10;;;6.10;99.90;;;;;;5020568;28;20730;-63
2022/01/15 12:15:01;;;;;;;6.93;1.73;;;6.20;99.90;;;;;;5021580;28;20184;-63
2022/01/15 12:17:39;;;;;;;7.47;2.07;;;6.10;99.90;;;;;;5011466;28;20251;-62
2022/01/15 12:20:18;;;;;;;8.60;2.63;;;6.10;99.90;;;;;;5020671;28;20256;-62
2022/01/15 12:22:50;;;;;;;7.90;2.67;;;6.10;99.90;;;;;;5022611;28;20629;-64
2022/01/15 12:25:18;;;;;;;13.53;2.83;;;5.90;99.90;;;;;;5020596;28;20647;-66
2022/01/15 12:27:59;;;;;;;16.70;2.97;;;6.10;99.90;;;;;;5022226;28;20636;-63
2022/01/15 12:30:30;;;;;;;14.13;4.13;;;6.10;99.90;;;;;;5023555;28;20206;-63
2022/01/15 12:33:00;;;;;;;9.47;3.07;;;6.10;99.90;;;;;;5026351;28;20197;-64
2022/01/15 12:35:28;;;;;;;11.87;3.30;;;6.00;99.90;;;;;;5026360;28;20189;-63
2022/01/15 12:38:01;;;;;;;6.27;1.93;;;6.00;99.90;;;;;;5024111;28;20184;-63
2022/01/15 12:40:43;;;;;;;14.27;1.90;;;6.00;99.90;;;;;;5024183;28;20230;-63
2022/01/15 12:43:10;;;;;;;10.70;3.40;;;6.00;99.90;;;;;;5024005;28;20228;-65
2022/01/15 12:45:38;;;;;;;5.47;1.90;;;6.00;99.90;;;;;;5021888;28;20211;-66
2022/01/15 12:48:04;;;;;;;8.70;2.50;;;6.10;99.90;;;;;;5021261;28;20635;-65
2022/01/15 12:50:51;;;;;;;20.00;2.73;;;6.00;99.90;;;;;;5022468;28;20658;-63
2022/01/15 12:53:22;;;;;;;12.47;2.90;;;5.90;99.90;;;;;;5020842;28;20184;-62
2022/01/15 12:55:49;;;;;;;15.70;3.13;;;6.00;99.90;;;;;;5023709;28;20205;-64
2022/01/15 12:58:18;;;;;;;10.70;2.80;;;6.00;99.90;;;;;;5025436;28;20220;-62
2022/01/15 13:00:44;;;;;;;8.50;2.43;;;6.00;99.90;;;;;;5023184;28;20202;-66
2022/01/15 13:03:11;;;;;;;10.80;2.80;;;6.20;99.90;;;;;;5022899;28;20651;-63
2022/01/15 13:05:39;;;;;;;11.43;2.50;;;6.20;99.90;;;;;;5023223;28;20295;-63
2022/01/15 13:08:13;;;;;;;10.67;2.60;;;6.10;99.90;;;;;;5029622;28;20184;-64
2022/01/15 13:10:56;;;;;;;9.63;2.20;;;6.10;99.90;;;;;;5021914;28;20667;-62
2022/01/15 13:13:23;;;;;;;12.33;2.30;;;6.10;99.90;;;;;;5024065;28;20192;-64
2022/01/15 13:16:17;;;;;;;10.00;2.70;;;6.20;99.90;;;;;;5023167;28;20195;-63
2022/01/15 13:18:44;;;;;;;4.60;1.90;;;6.10;99.90;;;;;;5022469;28;20279;-63